createdAt,value
2019-04-16T00:01:45.311Z,17.00
2019-04-16T00:04:27.364Z,25.80
2019-04-16T00:07:06.551Z,41.50
2019-04-16T00:09:39.838Z,49.45
2019-04-16T00:12:29.008Z,53.20
2019-04-16T00:15:01.411Z,52.25
2019-04-16T00:17:32.939Z,57.90
2019-04-16T00:20:06.984Z,55.33
2019-04-16T00:22:56.760Z,34.48
2019-04-16T00:25:28.159Z,23.55
2019-04-16T00:28:00.862Z,22.05
2019-04-16T00:30:35.512Z,21.35
2019-04-16T00:33:07.503Z,23.38
2019-04-16T00:35:38.920Z,21.95
2019-04-16T00:38:10.332Z,25.20
2019-04-16T00:40:41.735Z,18.92
2019-04-16T00:43:13.065Z,18.35
2019-04-16T00:45:44.656Z,17.20
2019-04-16T00:48:16.085Z,17.85
2019-04-16T00:50:47.534Z,32.90
2019-04-16T00:53:18.883Z,17.90
2019-04-16T00:55:50.131Z,14.58
2019-04-16T00:58:21.636Z,15.98
2019-04-16T01:00:53.051Z,15.58
2019-04-16T01:03:24.541Z,13.88
2019-04-16T01:05:55.906Z,14.80
2019-04-16T01:08:27.185Z,14.47
2019-04-16T01:10:58.584Z,15.48
2019-04-16T01:13:29.944Z,15.43
2019-04-16T01:16:03.788Z,14.90
2019-04-16T01:18:38.459Z,17.12
2019-04-16T01:21:13.726Z,15.95
2019-04-16T01:23:42.374Z,18.00
2019-04-16T01:26:13.929Z,18.90
2019-04-16T01:28:46.987Z,21.33
2019-04-16T01:31:23.004Z,22.60
2019-04-16T01:34:15.281Z,26.50
2019-04-16T01:37:04.511Z,35.48
2019-04-16T01:39:37.595Z,39.03
2019-04-16T01:42:11.195Z,35.50
2019-04-16T01:44:42.802Z,37.05
2019-04-16T01:47:14.216Z,40.80
2019-04-16T01:49:45.586Z,42.35
2019-04-16T01:52:18.950Z,39.18
2019-04-16T01:54:51.393Z,37.30
2019-04-16T01:57:23.219Z,40.35
2019-04-16T01:59:55.051Z,40.30
2019-04-16T02:02:27.553Z,43.10
2019-04-16T02:04:59.275Z,43.13
2019-04-16T02:07:30.593Z,47.90
2019-04-16T02:10:06.291Z,45.85
2019-04-16T02:12:35.173Z,45.58
2019-04-16T02:15:07.852Z,41.55
2019-04-16T02:17:39.351Z,31.23
2019-04-16T02:20:13.259Z,31.15
2019-04-16T02:22:45.677Z,36.60
2019-04-16T02:25:20.080Z,34.15
2019-04-16T02:27:50.348Z,32.45
2019-04-16T02:30:21.750Z,32.38
2019-04-16T02:32:53.219Z,30.02
2019-04-16T02:35:24.513Z,27.98
2019-04-16T02:37:55.940Z,29.15
2019-04-16T02:40:28.328Z,34.85
2019-04-16T02:43:03.937Z,39.00
2019-04-16T02:45:33.054Z,34.15
2019-04-16T02:48:04.484Z,31.55
2019-04-16T02:50:49.474Z,28.57
2019-04-16T02:53:37.873Z,31.55
2019-04-16T02:56:17.397Z,29.02
2019-04-16T02:58:45.568Z,29.12
2019-04-16T03:01:20.827Z,38.83
2019-04-16T03:03:56.879Z,36.75
2019-04-16T03:06:31.711Z,38.00
2019-04-16T03:09:08.005Z,41.90
2019-04-16T03:11:36.046Z,38.65
2019-04-16T03:14:08.477Z,40.58
2019-04-16T03:16:50.554Z,37.33
2019-04-16T03:19:29.566Z,35.43
2019-04-16T03:22:02.847Z,31.15
2019-04-16T03:24:37.489Z,32.90
2019-04-16T03:27:10.255Z,36.48
2019-04-16T03:29:41.728Z,36.83
2019-04-16T03:32:14.975Z,35.20
2019-04-16T03:34:46.095Z,35.30
2019-04-16T03:37:17.492Z,37.53
2019-04-16T03:39:48.756Z,38.28
2019-04-16T03:42:20.098Z,41.28
2019-04-16T03:44:51.415Z,35.73
2019-04-16T03:47:22.755Z,34.90
2019-04-16T03:49:56.410Z,33.23
2019-04-16T03:52:27.334Z,31.10
2019-04-16T03:54:58.751Z,36.80
2019-04-16T03:57:32.627Z,32.30
2019-04-16T04:00:03.228Z,54.18
2019-04-16T04:02:35.765Z,55.92
2019-04-16T04:05:07.793Z,59.48
2019-04-16T04:07:43.845Z,52.75
2019-04-16T04:10:13.332Z,50.98
2019-04-16T04:12:45.648Z,46.30
2019-04-16T04:15:17.884Z,46.18
2019-04-16T04:17:49.599Z,51.33
2019-04-16T04:20:23.286Z,49.10
2019-04-16T04:22:57.194Z,57.03
2019-04-16T04:25:27.926Z,50.08
2019-04-16T04:27:59.262Z,48.08
2019-04-16T04:30:30.673Z,43.73
2019-04-16T04:33:07.692Z,40.95
2019-04-16T04:35:35.456Z,41.02
2019-04-16T04:38:08.908Z,49.80
2019-04-16T04:40:44.662Z,48.55
2019-04-16T04:43:13.475Z,49.67
2019-04-16T04:45:45.063Z,49.55
2019-04-16T04:48:16.466Z,53.70
2019-04-16T04:50:47.908Z,54.50
2019-04-16T04:53:20.052Z,59.10
2019-04-16T04:55:51.537Z,59.85
2019-04-16T04:58:23.358Z,57.53
2019-04-16T05:00:54.939Z,57.78
2019-04-16T05:03:28.097Z,58.58
2019-04-16T05:06:01.130Z,53.65
2019-04-16T05:08:32.538Z,53.58
2019-04-16T05:11:04.031Z,57.95
2019-04-16T05:13:35.456Z,55.90
2019-04-16T05:16:07.181Z,53.25
2019-04-16T05:18:42.019Z,48.00
2019-04-16T05:21:11.944Z,51.60
2019-04-16T05:23:43.430Z,46.60
2019-04-16T05:26:14.805Z,42.65
2019-04-16T05:28:46.361Z,46.55
2019-04-16T05:31:17.879Z,45.92
2019-04-16T05:33:49.189Z,41.18
2019-04-16T05:36:21.559Z,46.13
2019-04-16T05:38:55.603Z,43.13
2019-04-16T05:41:26.285Z,42.33
2019-04-16T05:43:58.500Z,44.45
2019-04-16T05:46:31.871Z,44.42
2019-04-16T05:49:03.499Z,38.28
2019-04-16T05:51:36.348Z,38.28
2019-04-16T05:54:13.291Z,41.80
2019-04-16T05:56:55.730Z,42.27
2019-04-16T05:59:27.029Z,44.67
2019-04-16T06:02:15.117Z,44.10
2019-04-16T06:04:45.391Z,48.68
2019-04-16T06:07:16.680Z,46.02
2019-04-16T06:09:48.593Z,53.02
2019-04-16T06:12:21.205Z,43.87
2019-04-16T06:14:55.274Z,50.88
2019-04-16T06:17:32.167Z,58.15
2019-04-16T06:20:19.105Z,51.35
2019-04-16T06:23:09.510Z,46.58
2019-04-16T06:25:46.389Z,44.80
2019-04-16T06:28:19.574Z,33.30
2019-04-16T06:30:58.643Z,30.08
2019-04-16T06:33:31.590Z,31.40
2019-04-16T06:36:10.375Z,30.40
2019-04-16T06:38:46.209Z,31.42
2019-04-16T06:41:41.581Z,29.98
2019-04-16T06:44:12.385Z,34.83
2019-04-16T06:46:48.692Z,37.75
2019-04-16T06:49:40.042Z,37.78
2019-04-16T06:52:29.144Z,32.80
2019-04-16T06:55:14.384Z,36.83
2019-04-16T06:58:03.802Z,33.00
2019-04-16T07:00:49.372Z,36.75
2019-04-16T07:03:40.897Z,37.08
2019-04-16T07:06:30.423Z,39.55
2019-04-16T07:09:03.439Z,40.52
2019-04-16T07:11:38.309Z,39.70
2019-04-16T07:14:11.511Z,42.35
2019-04-16T07:16:42.993Z,41.50
2019-04-16T07:19:16.763Z,39.48
2019-04-16T07:21:49.710Z,41.18
2019-04-16T07:24:24.125Z,42.20
2019-04-16T07:26:57.459Z,41.83
2019-04-16T07:29:33.812Z,43.70
2019-04-16T07:32:09.830Z,42.03
2019-04-16T07:34:43.008Z,43.20
2019-04-16T07:37:33.198Z,47.93
2019-04-16T07:40:23.330Z,43.13
2019-04-16T07:43:02.096Z,42.75
2019-04-16T07:45:44.368Z,37.70
2019-04-16T07:48:27.539Z,45.23
2019-04-16T07:51:15.563Z,42.78
2019-04-16T07:54:04.090Z,41.92
2019-04-16T07:56:36.385Z,39.48
2019-04-16T07:59:07.872Z,30.72
2019-04-16T08:01:39.257Z,30.00
2019-04-16T08:04:10.615Z,28.23
2019-04-16T08:06:46.432Z,23.30
2019-04-16T08:09:16.767Z,24.70
2019-04-16T08:11:49.262Z,21.17
2019-04-16T08:14:20.615Z,21.45
2019-04-16T08:16:54.594Z,23.85
2019-04-16T08:19:36.556Z,20.35
2019-04-16T08:21:59.252Z,21.17
2019-04-16T08:24:32.174Z,18.07
2019-04-16T08:27:03.637Z,22.02
2019-04-16T08:29:34.991Z,23.47
2019-04-16T08:32:06.516Z,19.67
2019-04-16T08:34:37.918Z,20.85
2019-04-16T08:37:09.470Z,22.30
2019-04-16T08:39:40.920Z,21.70
2019-04-16T08:42:12.514Z,23.50
2019-04-16T08:44:43.972Z,22.45
2019-04-16T08:47:15.420Z,26.70
2019-04-16T08:49:47.069Z,22.93
2019-04-16T08:52:18.599Z,20.72
2019-04-16T08:54:54.565Z,25.62
2019-04-16T08:57:23.434Z,22.37
2019-04-16T08:59:54.935Z,22.73
2019-04-16T09:02:27.305Z,23.73
2019-04-16T09:04:58.928Z,23.65
2019-04-16T09:07:42.368Z,25.60
2019-04-16T09:10:20.296Z,27.35
2019-04-16T09:13:02.408Z,21.60
2019-04-16T09:15:27.104Z,17.95
2019-04-16T09:17:59.501Z,10.80
2019-04-16T09:20:34.672Z,10.25
2019-04-16T09:23:05.730Z,9.50
2019-04-16T09:25:42.561Z,11.68
2019-04-16T09:28:25.592Z,12.20
2019-04-16T09:31:11.235Z,11.12
2019-04-16T09:33:57.427Z,12.15
2019-04-16T09:36:33.631Z,13.22
2019-04-16T09:39:14.125Z,11.97
2019-04-16T09:41:46.341Z,10.80
2019-04-16T09:44:19.765Z,11.00
2019-04-16T09:46:52.194Z,10.88
2019-04-16T09:49:23.890Z,9.45
2019-04-16T09:51:55.418Z,13.65
2019-04-16T09:54:26.736Z,11.78
2019-04-16T09:56:59.739Z,10.40
2019-04-16T09:59:39.228Z,9.40
2019-04-16T10:02:12.221Z,8.85
2019-04-16T10:04:43.655Z,7.75
2019-04-16T10:07:15.079Z,9.40
2019-04-16T10:09:46.451Z,8.35
2019-04-16T10:12:24.987Z,8.38
2019-04-16T10:15:01.937Z,7.50
2019-04-16T10:17:34.534Z,9.23
2019-04-16T10:20:07.131Z,7.05
2019-04-16T10:22:38.552Z,7.00
2019-04-16T10:25:15.108Z,8.10
2019-04-16T10:27:48.261Z,8.80
2019-04-16T10:30:24.518Z,10.53
2019-04-16T10:32:56.160Z,13.62
2019-04-16T10:35:27.544Z,11.33
2019-04-16T10:38:01.723Z,14.50
2019-04-16T10:40:37.269Z,18.27
2019-04-16T10:43:25.302Z,21.45
2019-04-16T10:46:04.118Z,30.95
2019-04-16T10:48:40.418Z,29.60
2019-04-16T10:51:15.525Z,24.32
2019-04-16T10:54:04.605Z,27.87
2019-04-16T10:56:50.683Z,24.65
2019-04-16T10:59:39.189Z,23.67
2019-04-16T11:02:15.212Z,24.70
2019-04-16T11:04:54.119Z,26.05
2019-04-16T11:07:29.931Z,20.00
2019-04-16T11:10:01.428Z,16.35
2019-04-16T11:12:33.157Z,16.40
2019-04-16T11:15:05.514Z,13.68
2019-04-16T11:17:38.273Z,12.73
2019-04-16T11:20:10.753Z,9.73
2019-04-16T11:22:43.238Z,10.08
2019-04-16T11:25:14.760Z,12.15
2019-04-16T11:27:46.363Z,12.20
2019-04-16T11:30:31.351Z,11.65
2019-04-16T11:33:03.119Z,9.40
2019-04-16T11:35:35.869Z,10.03
2019-04-16T11:38:07.667Z,10.35
2019-04-16T11:40:41.095Z,9.93
2019-04-16T11:43:12.361Z,9.83
2019-04-16T11:45:45.244Z,9.48
2019-04-16T11:48:17.744Z,9.20
2019-04-16T11:50:49.315Z,12.70
2019-04-16T11:53:21.151Z,10.72
2019-04-16T11:55:53.394Z,11.15
2019-04-16T11:58:45.418Z,10.03
2019-04-16T12:01:22.906Z,14.05
2019-04-16T12:04:03.785Z,9.28
2019-04-16T12:06:37.820Z,10.75
2019-04-16T12:09:26.594Z,8.68
2019-04-16T12:11:59.738Z,10.50
2019-04-16T12:14:35.555Z,10.28
2019-04-16T12:17:25.020Z,13.28
2019-04-16T12:20:14.814Z,14.33
2019-04-16T12:22:50.685Z,16.02
2019-04-16T12:25:26.584Z,19.92
2019-04-16T12:28:11.308Z,14.90
2019-04-16T12:30:41.045Z,23.00
2019-04-16T12:33:14.602Z,32.38
2019-04-16T12:35:58.035Z,28.95
2019-04-16T12:38:37.188Z,20.50
2019-04-16T12:41:19.308Z,17.90
2019-04-16T12:43:52.328Z,20.30
2019-04-16T12:46:26.660Z,18.17
2019-04-16T12:49:02.357Z,16.45
2019-04-16T12:51:53.598Z,17.85
2019-04-16T12:54:37.773Z,13.20
2019-04-16T12:57:14.499Z,14.90
2019-04-16T12:59:54.646Z,15.80
2019-04-16T13:02:25.297Z,13.90
2019-04-16T13:04:59.369Z,17.00
2019-04-16T13:07:38.876Z,15.48
2019-04-16T13:10:16.400Z,15.43
2019-04-16T13:12:49.576Z,17.32
2019-04-16T13:15:22.561Z,18.10
2019-04-16T13:18:12.327Z,15.38
2019-04-16T13:21:05.433Z,26.23
2019-04-16T13:23:36.440Z,18.05
2019-04-16T13:26:13.858Z,16.27
2019-04-16T13:28:46.542Z,13.20
2019-04-16T13:31:18.110Z,17.77
2019-04-16T13:33:50.941Z,16.55
2019-04-16T13:36:27.025Z,18.37
2019-04-16T13:39:06.109Z,18.27
2019-04-16T13:41:38.244Z,26.00
2019-04-16T13:44:11.429Z,23.22
2019-04-16T13:46:43.842Z,21.97
2019-04-16T13:49:16.817Z,22.80
2019-04-16T13:51:49.840Z,22.17
2019-04-16T13:54:37.731Z,19.87
2019-04-16T13:57:17.968Z,19.87
2019-04-16T14:00:04.461Z,19.45
2019-04-16T14:02:47.870Z,18.35
2019-04-16T14:05:18.259Z,19.07
2019-04-16T14:07:51.101Z,18.48
2019-04-16T14:10:22.861Z,15.58
2019-04-16T14:12:54.265Z,20.32
2019-04-16T14:15:32.322Z,16.80
2019-04-16T14:18:00.831Z,20.40
2019-04-16T14:20:32.613Z,17.73
2019-04-16T14:23:05.337Z,17.80
2019-04-16T14:25:36.815Z,18.30
2019-04-16T14:28:08.287Z,19.77
2019-04-16T14:30:42.878Z,18.37
2019-04-16T14:33:15.975Z,20.08
2019-04-16T14:35:47.910Z,20.32
2019-04-16T14:38:21.211Z,21.68
2019-04-16T14:40:54.213Z,19.10
2019-04-16T14:43:29.444Z,20.60
2019-04-16T14:46:02.718Z,19.92
2019-04-16T14:48:39.055Z,22.93
2019-04-16T14:51:08.584Z,20.62
2019-04-16T14:53:41.875Z,19.98
2019-04-16T14:56:15.965Z,18.87
2019-04-16T14:58:49.046Z,19.52
2019-04-16T15:01:25.207Z,19.67
2019-04-16T15:04:01.269Z,20.25
2019-04-16T15:06:52.945Z,17.12
2019-04-16T15:09:25.811Z,21.42
2019-04-16T15:12:14.203Z,20.27
2019-04-16T15:14:56.467Z,18.10
2019-04-16T15:17:30.393Z,18.77
2019-04-16T15:20:20.990Z,16.67
2019-04-16T15:23:10.120Z,19.85
2019-04-16T15:25:45.929Z,17.90
2019-04-16T15:28:19.102Z,17.80
2019-04-16T15:30:52.177Z,18.92
2019-04-16T15:33:26.527Z,20.23
2019-04-16T15:36:08.730Z,21.50
2019-04-16T15:38:54.077Z,21.75
2019-04-16T15:41:41.722Z,21.68
2019-04-16T15:44:23.990Z,20.52
2019-04-16T15:47:04.067Z,20.57
2019-04-16T15:49:40.303Z,21.65
2019-04-16T15:52:29.549Z,22.00
2019-04-16T15:55:02.607Z,21.68
2019-04-16T15:57:41.473Z,24.20
2019-04-16T16:00:30.946Z,21.87
2019-04-16T16:03:07.192Z,23.15
2019-04-16T16:05:40.283Z,19.12
2019-04-16T16:08:23.474Z,22.30
2019-04-16T16:10:58.181Z,22.05
2019-04-16T16:13:29.705Z,24.45
2019-04-16T16:16:02.661Z,27.20
2019-04-16T16:18:35.887Z,24.30
2019-04-16T16:21:07.304Z,24.23
2019-04-16T16:23:38.784Z,32.70
2019-04-16T16:26:10.288Z,27.35
2019-04-16T16:28:41.642Z,24.95
2019-04-16T16:31:13.139Z,27.82
2019-04-16T16:33:46.867Z,27.10
2019-04-16T16:36:18.372Z,27.27
2019-04-16T16:38:49.960Z,27.48
2019-04-16T16:41:21.298Z,23.67
2019-04-16T16:43:52.899Z,24.65
2019-04-16T16:46:37.909Z,25.48
2019-04-16T16:49:09.247Z,26.87
2019-04-16T16:51:42.367Z,29.23
2019-04-16T16:54:15.393Z,27.55
2019-04-16T16:56:48.406Z,30.15
2019-04-16T16:59:30.584Z,36.73
2019-04-16T17:02:12.435Z,31.68
2019-04-16T17:04:45.536Z,29.82
2019-04-16T17:07:17.860Z,57.35
2019-04-16T17:09:49.523Z,30.48
2019-04-16T17:12:21.798Z,29.95
2019-04-16T17:14:53.539Z,28.45
2019-04-16T17:17:25.170Z,26.65
2019-04-16T17:19:56.687Z,29.60
2019-04-16T17:22:28.073Z,29.35
2019-04-16T17:24:59.492Z,31.10
2019-04-16T17:27:30.916Z,31.33
2019-04-16T17:30:02.638Z,29.80
2019-04-16T17:32:34.113Z,28.95
2019-04-16T17:35:07.585Z,28.90
2019-04-16T17:37:39.422Z,30.08
2019-04-16T17:40:16.270Z,33.15
2019-04-16T17:42:48.906Z,33.42
2019-04-16T17:45:24.488Z,34.30
2019-04-16T17:48:11.462Z,31.30
2019-04-16T17:50:53.476Z,35.88
2019-04-16T17:53:29.510Z,29.82
2019-04-16T17:56:18.722Z,29.32
2019-04-16T17:58:51.748Z,33.80
2019-04-16T18:01:30.742Z,31.30
2019-04-16T18:04:20.135Z,31.55
2019-04-16T18:06:56.073Z,26.52
2019-04-16T18:09:29.256Z,25.12
2019-04-16T18:12:08.296Z,25.02
2019-04-16T18:14:57.592Z,29.82
2019-04-16T18:17:48.035Z,35.90
2019-04-16T18:20:30.162Z,29.63
2019-04-16T18:23:12.573Z,29.52
2019-04-16T18:26:02.291Z,28.12
2019-04-16T18:28:35.306Z,28.73
2019-04-16T18:31:08.657Z,23.50
2019-04-16T18:33:44.450Z,26.93
2019-04-16T18:36:17.803Z,28.67
2019-04-16T18:38:50.876Z,23.30
2019-04-16T18:41:42.516Z,25.60
2019-04-16T18:44:24.728Z,27.87
2019-04-16T18:46:57.825Z,30.10
2019-04-16T18:49:30.935Z,28.95
2019-04-16T18:52:05.648Z,28.77
2019-04-16T18:54:36.782Z,28.55
2019-04-16T18:57:08.183Z,31.62
2019-04-16T18:59:39.754Z,33.88
2019-04-16T19:02:11.335Z,35.25
2019-04-16T19:04:42.897Z,36.00
2019-04-16T19:07:14.736Z,43.45
2019-04-16T19:09:46.343Z,44.58
2019-04-16T19:12:17.925Z,46.35
2019-04-16T19:14:49.595Z,46.95
2019-04-16T19:17:21.152Z,44.98
2019-04-16T19:19:54.576Z,44.63
2019-04-16T19:22:26.593Z,39.10
2019-04-16T19:24:58.239Z,42.13
2019-04-16T19:27:31.845Z,36.75
2019-04-16T19:30:09.872Z,34.55
2019-04-16T19:32:41.479Z,37.23
2019-04-16T19:35:19.186Z,38.70
2019-04-16T19:37:49.696Z,37.33
2019-04-16T19:40:21.219Z,34.73
2019-04-16T19:42:52.838Z,34.90
2019-04-16T19:45:24.453Z,31.62
2019-04-16T19:48:00.255Z,33.73
2019-04-16T19:50:36.170Z,32.98
2019-04-16T19:53:05.746Z,34.27
2019-04-16T19:55:37.107Z,42.27
2019-04-16T19:58:08.560Z,48.05
2019-04-16T20:00:40.103Z,41.30
2019-04-16T20:03:13.768Z,44.98
2019-04-16T20:05:45.756Z,42.35
2019-04-16T20:08:20.173Z,49.15
2019-04-16T20:10:51.746Z,48.52
2019-04-16T20:13:28.975Z,51.05
2019-04-16T20:16:00.793Z,50.48
2019-04-16T20:18:34.026Z,48.33
2019-04-16T20:21:05.681Z,44.65
2019-04-16T20:23:37.185Z,38.33
2019-04-16T20:26:08.785Z,33.50
2019-04-16T20:28:40.521Z,31.07
2019-04-16T20:31:12.103Z,36.50
2019-04-16T20:33:43.652Z,30.45
2019-04-16T20:36:15.377Z,35.50
2019-04-16T20:38:46.902Z,43.90
2019-04-16T20:41:19.248Z,42.05
2019-04-16T20:43:50.953Z,49.60
2019-04-16T20:46:22.496Z,48.23
2019-04-16T20:49:07.669Z,46.08
2019-04-16T20:51:29.400Z,42.83
2019-04-16T20:54:05.306Z,39.63
2019-04-16T20:56:40.343Z,38.10
2019-04-16T20:59:10.486Z,38.90
2019-04-16T21:01:41.876Z,42.83
2019-04-16T21:04:14.406Z,40.28
2019-04-16T21:06:47.318Z,47.10
2019-04-16T21:09:18.890Z,43.50
2019-04-16T21:11:52.696Z,38.02
2019-04-16T21:14:23.531Z,45.45
2019-04-16T21:16:55.087Z,60.78
2019-04-16T21:19:28.223Z,79.05
2019-04-16T21:22:01.722Z,71.67
2019-04-16T21:24:32.720Z,66.57
2019-04-16T21:27:04.182Z,76.02
2019-04-16T21:29:36.924Z,63.40
2019-04-16T21:32:10.950Z,62.48
2019-04-16T21:34:47.604Z,52.90
2019-04-16T21:37:20.822Z,50.43
2019-04-16T21:39:59.379Z,52.20
2019-04-16T21:42:34.221Z,52.30
2019-04-16T21:45:06.501Z,43.00
2019-04-16T21:47:37.930Z,41.90
2019-04-16T21:50:09.322Z,36.68
2019-04-16T21:52:40.769Z,33.92
2019-04-16T21:55:12.997Z,35.25
2019-04-16T21:57:46.064Z,36.40
2019-04-16T22:00:22.013Z,32.33
2019-04-16T22:02:56.048Z,29.42
2019-04-16T22:05:27.554Z,32.42
2019-04-16T22:07:59.024Z,33.63
2019-04-16T22:10:32.069Z,32.17
2019-04-16T22:13:03.529Z,36.42
2019-04-16T22:15:34.880Z,30.90
2019-04-16T22:18:08.740Z,32.45
2019-04-16T22:20:39.626Z,33.85
2019-04-16T22:23:11.062Z,32.15
2019-04-16T22:25:42.572Z,29.70
2019-04-16T22:28:14.846Z,28.02
2019-04-16T22:30:51.219Z,30.00
2019-04-16T22:33:19.552Z,25.17
2019-04-16T22:35:51.109Z,26.65
2019-04-16T22:38:24.179Z,25.92
2019-04-16T22:40:57.194Z,23.83
2019-04-16T22:43:39.583Z,26.15
2019-04-16T22:46:13.911Z,23.62
2019-04-16T22:48:55.359Z,26.90
2019-04-16T22:51:28.053Z,27.17
2019-04-16T22:53:59.460Z,22.87
2019-04-16T22:56:35.471Z,22.25
2019-04-16T22:59:08.243Z,21.07
2019-04-16T23:01:41.705Z,32.78
2019-04-16T23:04:14.549Z,25.70
2019-04-16T23:06:46.244Z,25.90
2019-04-16T23:09:18.044Z,29.75
2019-04-16T23:11:52.724Z,23.80
2019-04-16T23:14:23.696Z,26.23
2019-04-16T23:16:57.043Z,30.50
2019-04-16T23:19:28.490Z,29.30
2019-04-16T23:22:00.112Z,26.90
2019-04-16T23:24:31.518Z,27.80
2019-04-16T23:27:06.051Z,30.10
2019-04-16T23:29:36.478Z,29.95
2019-04-16T23:32:07.902Z,35.30
2019-04-16T23:34:40.685Z,39.42
2019-04-16T23:37:12.014Z,41.65
2019-04-16T23:39:43.629Z,41.60
2019-04-16T23:42:18.832Z,38.10
2019-04-16T23:44:54.723Z,39.53
2019-04-16T23:47:44.751Z,36.17
2019-04-16T23:50:44.320Z,36.95
2019-04-16T23:53:10.759Z,37.93
2019-04-16T23:55:52.570Z,34.38
2019-04-16T23:58:28.536Z,33.10
